Leonardo Nascimento

Olheiro - Portimonense
14 Out 2027
Quinta-feira
Processo

Personalidade

Adaptabilidade (16) Ambição (18) Controvérsia (3) Lealdade (5) Pressão (8) Profissionalismo (4) Espírito Esportivo (6) Temperamento (11)

Perfil

Estilo de Treinamento Democrático
Licença Continental C
Determinação 5
Gestão de Pessoas 5
Motivação 12
Disciplina 9
Satisfação no Trabalho
100%
Fadiga
0%
Função Olheiro
Salário 67.9K p/s
Contrato 14.03.2028

Desempenho

Comportamento Bom
Eficácia do Treinamento
43%
Desenvolvimento do Jogador
35%
Prevenção de Lesões
30%
Implementação Tática
20%

Eventos Recentes

Participou de uma reunião de recrutamento agora
Recomendou um alvo de transferência agora
Participou de uma reunião de recrutamento 7d atrás
Recomendou um alvo de transferência 7d atrás
Recomendou um alvo de transferência 7d atrás
Recomendou um alvo de transferência 7d atrás
Recomendou um alvo de transferência 14d atrás
Recomendou um alvo de transferência 14d atrás

Monitorando agora

62
Jogador Clube Status Habilidade Confiança Observado Última observação Último voto
Paulinho Leixões Perdido 113 / 96 69% 1 19.07.2027 Aprovar
Andreas Trimmel Red Bull Salzburg Ativo 131 / 131 60% 1 01.06.2027 Aprovar
Amar Memić Casa Pia Ativo 127 / 128 62% 1 01.06.2027 Aprovar
Jefry Zapata Danubio Ativo 118 / 118 67% 1 01.06.2027 Aprovar
Florentino Luís Ipswich Town Ativo 146 / 140 40% 2 31.12.2026 -
Tom Fellows Southampton Ativo 122 / 132 40% 2 29.12.2026 -
Ole Pohlmann Rio Ave Ativo 130 / 121 40% 1 29.12.2026 -
Nicolás Castro Toluca Ativo 122 / 119 40% 2 28.12.2026 -
Tshepang Moremi Orlando Pirates Ativo 131 / 111 40% 4 26.12.2026 -
Rafik Guitane Estoril Praia Ativo 137 / 130 40% 1 26.12.2026 -
Daniel Kyerewaa Reading Ativo 113 / 110 40% 1 20.12.2026 -
Figueiredo Alverca Ativo 131 / 120 40% 5 19.12.2026 -
Sorba Thomas Stoke City Ativo 136 / 129 40% 1 17.12.2026 -
Jalen Blesa Rio Ave Ativo 128 / 124 40% 2 14.12.2026 -
Tyrese Campbell Sheffield United Ativo 132 / 125 40% 2 14.12.2026 -
Oswin Appollis Orlando Pirates Ativo 120 / 110 40% 1 13.12.2026 -
Ruben van Bommel Ferencvaros Ativo 141 / 135 40% 1 12.12.2026 -
Dávid Strelec Middlesbrough Ativo 135 / 129 40% 1 11.12.2026 -
Reda Khadra Qarabag Ativo 133 / 136 40% 2 06.12.2026 -
Scott Twine Bristol City Ativo 125 / 127 40% 2 06.12.2026 -
Mandla Mahlangu Ajax Cape Town Ativo 93 / 101 40% 3 01.12.2026 -
Brayan León Mamelodi Sundowns Ativo 119 / 120 40% 2 01.12.2026 -
Tom Cannon Sheffield United Ativo 117 / 135 40% 2 29.11.2026 -
William Gomes Porto Ativo 149 / 137 40% 1 29.11.2026 -
Benjamin Kanurić SV Ried Ativo 109 / 104 40% 1 27.11.2026 -
Themba Ngcobo SuperSport United Ativo 107 / 128 40% 1 26.11.2026 -
Morgan Whittaker Middlesbrough Ativo 140 / 126 40% 1 26.11.2026 -
Martín Tejón Maritimo Ativo 119 / 124 40% 1 25.11.2026 -
Fiete Arp OB Ativo 120 / 136 40% 1 25.11.2026 -
Agustín Módica Gimnasia y Esgrima Ativo 119 / 126 40% 1 24.11.2026 -
Richard Koné Queens Park Rangers Ativo 132 / 116 40% 2 21.11.2026 -
Adnan Courtois KV Oostende Ativo 128 / 137 40% 2 19.11.2026 -
Demba Seck Partizan Ativo 118 / 119 40% 1 17.11.2026 -
Will Lankshear Middlesbrough Ativo 112 / 123 40% 1 13.11.2026 -
Marezi Portsmouth Ativo 127 / 124 40% 2 12.11.2026 -
Everton Bala Levski Ativo 135 / 131 40% 1 12.11.2026 -
Tommy Conway Middlesbrough Ativo 126 / 124 40% 2 11.11.2026 -
Luis Vázquez Birmingham Ativo 123 / 127 40% 2 09.11.2026 -
Aune Heggebø West Bromwich Albion Ativo 125 / 129 40% 1 09.11.2026 -
Vinícius Lopes Santa Clara Ativo 134 / 125 40% 1 07.11.2026 -
Iker Benito Queretaro Ativo 138 / 135 40% 2 06.11.2026 -
Pau Víctor AVS Ativo 138 / 129 40% 2 06.11.2026 -
Lorent Tolaj Plymouth Argyle Ativo 125 / 126 40% 1 06.11.2026 -
Alfonso Trezza Arouca Ativo 132 / 117 40% 1 02.11.2026 -
Rodrigo Pinheiro Famalicao Ativo 122 / 132 40% 1 02.11.2026 -
Jack Rudoni Coventry City Ativo 141 / 133 40% 2 20.10.2026 -
Erison Kawasaki Frontale Ativo 134 / 124 40% 1 20.10.2026 -
Ethan Galbraith Swansea City Ativo 122 / 126 40% 1 20.10.2026 -
Soma Anzai FC Tokyo Ativo 132 / 117 40% 2 17.10.2026 -
Antony Portland Timbers Ativo 145 / 142 40% 1 16.10.2026 -
Jason Knight Bristol City Ativo 124 / 129 40% 1 11.10.2026 -
Stanley Mills Oxford United Ativo 117 / 119 40% 1 11.10.2026 -
Sota Kitano Luzern Ativo 113 / 121 40% 1 07.10.2026 -
Kévin Denkey FC Cincinnati Ativo 144 / 120 40% 3 06.10.2026 -
Zeki Amdouni Burnley Ativo 131 / 129 40% 1 05.10.2026 -
Bénie Traoré New York City Ativo 121 / 128 40% 1 17.09.2026 -
De Lucca Rapid Wien Ativo 130 / 122 40% 1 10.09.2026 -
Dejan Joveljić Seattle Sounders Ativo 111 / 115 40% 1 09.09.2026 -
Tomás Chancalay Minnesota United FC Ativo 140 / 138 40% 1 07.09.2026 -
Theo Corbeanu Toronto FC Ativo 116 / 124 40% 1 07.09.2026 -
Luís Bastos Oliveirense Ativo 85 / 103 55% 1 03.08.2026 -
Victor Froholdt Porto Ativo 135 / 161 40% 1 01.08.2026 -